Gulfport Biloxi International Airport
KGPT : rendu visible

Aérodrome :











RETROUVEZ-NOUS SUR...

 
LOGIN :

S'inscrire | Disclaimer

   EN    FR    IT 

 









Légende :    VFR   VFR Marginal   IFR   IFR Intensif   IFR Très Intensif
Visi : 
Plafond : 
>= 8 km
>= 3000ft
5 à 8 km
1000 à 3000 ft
1500m à 5 km
500 à 1000 ft
800 à 1500m
200 à 500 ft
< 800m
< 200 ft
Symboles :   Orages  Brouillard  Fortes neiges  Fortes précipitations  Vent > 20 kt







- Altitude de l'aérodrome : 28 ft
- Code IATA : GPT


KGPT - Gulfport Biloxi International

DERNIER METAR :
  • 261553Z 35010KT 10SM FEW026 17/09 A3020 RMK AO2 SLP225 T01670089

METARs EXPIRÉS :
  • 261453Z 01012KT 10SM CLR 16/09 A3019 RMK AO2 SLP221 T01610089 51009
  • 261353Z 36010KT 10SM CLR 14/09 A3018 RMK AO2 SLP220 T01440089

TAF KGPT
Valide du 26 à 12h jusqu'au 27 à 12h UTC


261121Z 2612/2712 35008KT P6SM SKC
FM261600 34012KT P6SM SCT030
FM270100 35009KT P6SM SKC
FIR KZHU / Amérique du Nord



MET'MAP, la Météo Aéronautique d'un coup d'oeil ! - Copyright ORBIFLY Décembre 2007 - Disclaimer

ORBIFLY MET'MAP TEAM :

Programmation & Développement : Alexandra Zaïnal
Conception & Développement : Baudouin d'Aumeries
Co-Programmation & Développement : Marc-Olivier Méhu
Soutien technique & logistique : Manuel Goepfert

Contact : metmap@orbifly.com




SOURCES & CREDITS :

   NOAA       Earth
Advisory